createdAt,value
2023-04-06T00:00:29.287Z,1.29
2023-04-06T00:02:56.213Z,1.24
2023-04-06T00:05:24.148Z,1.21
2023-04-06T00:07:51.183Z,1.17
2023-04-06T00:10:18.381Z,1.16
2023-04-06T00:12:45.283Z,1.08
2023-04-06T00:15:12.237Z,1.08
2023-04-06T00:17:39.133Z,1.03
2023-04-06T00:20:06.675Z,1.03
2023-04-06T00:22:33.858Z,1.01
2023-04-06T00:25:00.863Z,0.91
2023-04-06T00:27:27.705Z,0.93
2023-04-06T00:29:54.458Z,0.89
2023-04-06T00:32:21.397Z,0.89
2023-04-06T00:34:48.289Z,0.89
2023-04-06T00:37:15.099Z,0.88
2023-04-06T00:39:41.954Z,0.87
2023-04-06T00:42:15.564Z,0.89
2023-04-06T00:44:43.091Z,0.89
2023-04-06T00:47:10.512Z,0.88
2023-04-06T00:49:37.394Z,0.91
2023-04-06T00:52:04.475Z,0.92
2023-04-06T00:54:31.969Z,0.90
2023-04-06T00:56:59.297Z,0.95
2023-04-06T00:59:26.276Z,0.98
2023-04-06T01:01:53.377Z,0.96
2023-04-06T01:04:20.368Z,1.00
2023-04-06T01:06:47.426Z,0.91
2023-04-06T01:09:14.216Z,0.97
2023-04-06T01:11:41.320Z,0.99
2023-04-06T01:14:08.360Z,0.98
2023-04-06T01:16:35.633Z,1.00
2023-04-06T01:19:08.182Z,0.96
2023-04-06T01:21:35.596Z,0.95
2023-04-06T01:24:02.909Z,0.96
2023-04-06T01:26:30.644Z,0.99
2023-04-06T01:28:57.943Z,0.98
2023-04-06T01:31:25.074Z,0.97
2023-04-06T01:33:52.052Z,0.97
2023-04-06T01:36:19.552Z,1.02
2023-04-06T01:38:46.938Z,1.02
2023-04-06T01:41:13.912Z,0.89
2023-04-06T01:43:40.715Z,0.90
2023-04-06T01:46:07.564Z,0.92
2023-04-06T01:48:34.481Z,0.90
2023-04-06T01:51:01.454Z,0.87
2023-04-06T01:53:28.238Z,0.86
2023-04-06T01:55:55.024Z,0.85
2023-04-06T01:58:21.788Z,0.83
2023-04-06T02:00:48.769Z,0.85
2023-04-06T02:03:16.208Z,0.82
2023-04-06T02:05:43.573Z,0.76
2023-04-06T02:08:10.466Z,0.74
2023-04-06T02:10:37.390Z,0.75
2023-04-06T02:13:04.160Z,0.73
2023-04-06T02:15:31.371Z,0.68
2023-04-06T02:17:58.772Z,0.56
2023-04-06T02:20:25.678Z,0.53
2023-04-06T02:22:52.471Z,0.56
2023-04-06T02:25:19.281Z,0.55
2023-04-06T02:27:46.324Z,0.54
2023-04-06T02:30:13.461Z,0.43
2023-04-06T02:32:40.722Z,0.39
2023-04-06T02:35:07.853Z,0.32
2023-04-06T02:37:34.913Z,0.31
2023-04-06T02:40:01.828Z,0.31
2023-04-06T02:42:28.645Z,0.23
2023-04-06T02:44:55.480Z,0.23
2023-04-06T02:47:22.315Z,0.21
2023-04-06T02:49:49.193Z,0.20
2023-04-06T02:52:16.176Z,0.20
2023-04-06T02:54:42.986Z,0.10
2023-04-06T02:57:09.769Z,0.15
2023-04-06T02:59:36.692Z,0.11
2023-04-06T03:02:05.648Z,0.09
2023-04-06T03:04:32.431Z,0.04
2023-04-06T03:07:01.305Z,-0.02
2023-04-06T03:09:28.722Z,-0.06
2023-04-06T03:11:56.391Z,-0.12
2023-04-06T03:14:23.517Z,-0.20
2023-04-06T03:16:50.509Z,-0.26
2023-04-06T03:19:17.299Z,-0.35
2023-04-06T03:21:44.162Z,-0.39
2023-04-06T03:24:11.346Z,-0.39
2023-04-06T03:26:38.212Z,-0.40
2023-04-06T03:29:05.014Z,-0.49
2023-04-06T03:31:32.014Z,-0.53
2023-04-06T03:33:59.053Z,-0.63
2023-04-06T03:36:28.754Z,-0.70
2023-04-06T03:38:55.635Z,-0.77
2023-04-06T03:41:22.710Z,-0.86
2023-04-06T03:43:49.622Z,-0.95
2023-04-06T03:46:16.724Z,-0.97
2023-04-06T03:48:43.590Z,-0.99
2023-04-06T03:51:10.581Z,-1.06
2023-04-06T03:53:38.355Z,-1.11
2023-04-06T03:56:06.502Z,-1.12
2023-04-06T03:58:33.402Z,-1.20
2023-04-06T04:01:00.251Z,-1.21
2023-04-06T04:03:28.916Z,-1.27
2023-04-06T04:05:58.852Z,-1.31
2023-04-06T04:08:26.279Z,-1.35
2023-04-06T04:10:53.089Z,-1.38
2023-04-06T04:13:21.027Z,-1.39
2023-04-06T04:15:48.792Z,-1.48
2023-04-06T04:18:15.987Z,-1.42
2023-04-06T04:20:42.878Z,-1.46
2023-04-06T04:23:09.662Z,-1.45
2023-04-06T04:25:37.872Z,-1.49
2023-04-06T04:28:04.795Z,-1.49
2023-04-06T04:30:31.875Z,-1.49
2023-04-06T04:32:58.909Z,-1.51
2023-04-06T04:35:26.235Z,-1.52
2023-04-06T04:37:53.368Z,-1.57
2023-04-06T04:40:20.440Z,-1.56
2023-04-06T04:42:47.655Z,-1.60
2023-04-06T04:45:14.696Z,-1.55
2023-04-06T04:47:41.653Z,-1.56
2023-04-06T04:50:08.904Z,-1.61
2023-04-06T04:52:35.774Z,-1.67
2023-04-06T04:55:02.909Z,-1.61
2023-04-06T04:57:29.790Z,-1.69
2023-04-06T04:59:58.063Z,-1.61
2023-04-06T05:02:25.085Z,-1.66
2023-04-06T05:04:52.169Z,-1.63
2023-04-06T05:07:19.992Z,-1.61
2023-04-06T05:09:46.956Z,-1.60
2023-04-06T05:12:13.972Z,-1.55
2023-04-06T05:14:41.125Z,-1.51
2023-04-06T05:17:08.087Z,-1.47
2023-04-06T05:19:35.001Z,-1.42
2023-04-06T05:22:01.887Z,-1.39
2023-04-06T05:24:28.769Z,-1.38
2023-04-06T05:26:56.100Z,-1.33
2023-04-06T05:29:23.126Z,-1.28
2023-04-06T05:31:50.212Z,-1.22
2023-04-06T05:34:17.132Z,-1.16
2023-04-06T05:36:44.101Z,-1.13
2023-04-06T05:39:11.326Z,-1.00
2023-04-06T05:41:38.326Z,-0.89
2023-04-06T05:44:05.223Z,-0.92
2023-04-06T05:46:32.519Z,-0.73
2023-04-06T05:48:59.402Z,-0.66
2023-04-06T05:51:26.318Z,-0.50
2023-04-06T05:53:53.113Z,-0.33
2023-04-06T05:56:22.386Z,-0.29
2023-04-06T05:58:49.226Z,-0.10
2023-04-06T06:01:16.846Z,0.07
2023-04-06T06:03:43.825Z,0.19
2023-04-06T06:06:10.805Z,0.33
2023-04-06T06:08:37.636Z,0.48
2023-04-06T06:11:04.581Z,0.48
2023-04-06T06:13:31.504Z,0.73
2023-04-06T06:15:59.086Z,0.89
2023-04-06T06:18:26.047Z,1.19
2023-04-06T06:20:53.019Z,1.28
2023-04-06T06:23:19.845Z,1.46
2023-04-06T06:25:46.781Z,1.76
2023-04-06T06:28:13.572Z,1.98
2023-04-06T06:30:40.523Z,2.05
2023-04-06T06:33:07.432Z,2.13
2023-04-06T06:35:34.310Z,2.41
2023-04-06T06:38:01.200Z,2.43
2023-04-06T06:40:28.665Z,2.66
2023-04-06T06:42:55.623Z,2.81
2023-04-06T06:45:22.729Z,2.86
2023-04-06T06:47:49.697Z,2.98
2023-04-06T06:50:16.743Z,3.34
2023-04-06T06:52:44.067Z,3.56
2023-04-06T06:55:12.036Z,3.80
2023-04-06T06:57:39.647Z,4.03
2023-04-06T07:00:09.416Z,4.38
2023-04-06T07:02:37.274Z,4.64
2023-04-06T07:05:16.081Z,4.99
2023-04-06T07:07:51.036Z,5.34
2023-04-06T07:10:17.915Z,5.56
2023-04-06T07:12:44.786Z,5.78
2023-04-06T07:15:14.837Z,6.14
2023-04-06T07:17:46.601Z,6.40
2023-04-06T07:20:14.281Z,6.72
2023-04-06T07:22:43.193Z,6.97
2023-04-06T07:25:10.367Z,7.14
2023-04-06T07:27:37.600Z,7.28
2023-04-06T07:30:04.850Z,7.71
2023-04-06T07:32:31.934Z,7.95
2023-04-06T07:34:59.458Z,7.81
2023-04-06T07:37:26.491Z,8.21
2023-04-06T07:39:53.431Z,7.93
2023-04-06T07:42:20.625Z,7.89
2023-04-06T07:44:50.159Z,8.25
2023-04-06T07:47:17.033Z,8.81
2023-04-06T07:49:43.935Z,9.30
2023-04-06T07:52:10.820Z,9.31
2023-04-06T07:54:37.800Z,9.86
2023-04-06T07:57:04.752Z,9.64
2023-04-06T07:59:34.135Z,9.72
2023-04-06T08:02:01.677Z,9.98
2023-04-06T08:04:28.419Z,10.11
2023-04-06T08:06:55.229Z,9.50
2023-04-06T08:09:24.666Z,9.01
2023-04-06T08:11:51.523Z,8.53
2023-04-06T08:14:18.336Z,8.64
2023-04-06T08:16:45.266Z,10.05
2023-04-06T08:19:12.476Z,9.54
2023-04-06T08:21:41.189Z,9.47
2023-04-06T08:24:08.402Z,9.73
2023-04-06T08:26:35.479Z,10.44
2023-04-06T08:29:02.440Z,10.20
2023-04-06T08:31:29.451Z,9.91
2023-04-06T08:33:56.371Z,10.25
2023-04-06T08:36:24.158Z,10.81
2023-04-06T08:38:51.436Z,11.02
2023-04-06T08:41:19.191Z,11.44
2023-04-06T08:43:50.270Z,11.68
2023-04-06T08:46:19.702Z,11.45
2023-04-06T08:48:51.128Z,11.04
2023-04-06T08:51:19.950Z,11.91
2023-04-06T08:53:47.622Z,11.92
2023-04-06T08:56:14.466Z,12.01
2023-04-06T08:58:42.125Z,12.69
2023-04-06T09:01:12.859Z,12.73
2023-04-06T09:03:42.024Z,12.43
2023-04-06T09:06:10.077Z,12.95
2023-04-06T09:08:40.058Z,13.26
2023-04-06T09:11:07.344Z,12.85
2023-04-06T09:13:55.962Z,11.64
2023-04-06T09:16:24.298Z,10.71
2023-04-06T09:18:51.438Z,11.66
2023-04-06T09:21:21.027Z,12.32
2023-04-06T09:24:04.156Z,12.89
2023-04-06T09:26:31.413Z,13.48
2023-04-06T09:29:00.772Z,14.28
2023-04-06T09:31:34.406Z,14.24
2023-04-06T09:34:01.648Z,14.02
2023-04-06T09:36:37.140Z,14.43
2023-04-06T09:39:05.586Z,14.51
2023-04-06T09:41:34.965Z,13.59
2023-04-06T09:44:08.043Z,13.67
2023-04-06T09:46:58.732Z,13.75
2023-04-06T09:49:29.498Z,14.06
2023-04-06T09:52:01.696Z,13.39
2023-04-06T09:54:36.194Z,13.45
2023-04-06T09:57:20.007Z,14.73
2023-04-06T10:00:09.286Z,14.92
2023-04-06T10:02:51.503Z,14.38
2023-04-06T10:05:28.973Z,14.83
2023-04-06T10:08:01.264Z,14.63
2023-04-06T10:10:30.023Z,13.61
2023-04-06T10:12:57.859Z,13.48
2023-04-06T10:15:25.512Z,14.02
2023-04-06T10:17:53.251Z,14.29
2023-04-06T10:20:30.823Z,13.92
2023-04-06T10:23:10.993Z,12.95
2023-04-06T10:25:38.998Z,13.54
2023-04-06T10:28:10.664Z,12.92
2023-04-06T10:30:46.824Z,11.54
2023-04-06T10:33:18.901Z,10.86
2023-04-06T10:35:46.278Z,10.43
2023-04-06T10:38:15.432Z,10.11
2023-04-06T10:40:48.891Z,9.68
2023-04-06T10:43:22.082Z,9.52
2023-04-06T10:46:08.559Z,10.28
2023-04-06T10:48:40.329Z,11.01
2023-04-06T10:51:13.112Z,11.18
2023-04-06T10:53:46.190Z,11.03
2023-04-06T10:56:28.956Z,10.85
2023-04-06T10:59:02.533Z,11.80
2023-04-06T11:01:29.787Z,13.14
2023-04-06T11:04:01.599Z,13.46
2023-04-06T11:06:40.245Z,12.96
2023-04-06T11:09:07.879Z,12.53
2023-04-06T11:11:39.916Z,12.43
2023-04-06T11:14:06.791Z,11.90
2023-04-06T11:16:34.395Z,12.38
2023-04-06T11:19:03.291Z,12.27
2023-04-06T11:21:36.574Z,12.07
2023-04-06T11:24:15.432Z,11.87
2023-04-06T11:26:48.341Z,12.26
2023-04-06T11:29:17.635Z,12.38
2023-04-06T11:31:48.993Z,12.64
2023-04-06T11:34:26.285Z,12.22
2023-04-06T11:36:58.356Z,12.09
2023-04-06T11:39:27.848Z,11.22
2023-04-06T11:41:58.646Z,10.29
2023-04-06T11:44:47.159Z,10.29
2023-04-06T11:47:14.278Z,10.57
2023-04-06T11:49:43.322Z,11.07
2023-04-06T11:52:21.724Z,11.50
2023-04-06T11:54:50.202Z,11.88
2023-04-06T11:57:18.270Z,12.03
2023-04-06T11:59:45.821Z,11.86
2023-04-06T12:02:12.930Z,12.11
2023-04-06T12:04:39.862Z,12.05
2023-04-06T12:07:07.023Z,12.38
2023-04-06T12:09:35.762Z,12.56
2023-04-06T12:12:03.334Z,11.66
2023-04-06T12:14:31.980Z,11.10
2023-04-06T12:16:59.435Z,10.63
2023-04-06T12:19:27.105Z,10.23
2023-04-06T12:21:55.788Z,9.87
2023-04-06T12:24:22.658Z,10.12
2023-04-06T12:26:54.023Z,10.18
2023-04-06T12:29:26.525Z,10.04
2023-04-06T12:31:54.425Z,11.02
2023-04-06T12:34:21.777Z,11.55
2023-04-06T12:36:51.687Z,11.67
2023-04-06T12:39:21.709Z,12.19
2023-04-06T12:41:48.797Z,11.98
2023-04-06T12:44:15.896Z,11.06
2023-04-06T12:46:44.459Z,11.20
2023-04-06T12:49:11.558Z,11.46
2023-04-06T12:51:38.367Z,10.89
2023-04-06T12:54:05.200Z,10.44
2023-04-06T12:56:32.357Z,10.98
2023-04-06T12:58:59.252Z,11.54
2023-04-06T13:01:27.790Z,12.15
2023-04-06T13:03:54.819Z,13.05
2023-04-06T13:06:21.908Z,13.24
2023-04-06T13:08:51.332Z,13.51
2023-04-06T13:11:18.389Z,13.60
2023-04-06T13:13:45.656Z,13.60
2023-04-06T13:16:12.406Z,13.49
2023-04-06T13:18:40.173Z,14.18
2023-04-06T13:21:08.405Z,13.41
2023-04-06T13:23:36.190Z,14.30
2023-04-06T13:26:08.689Z,13.94
2023-04-06T13:28:38.437Z,13.46
2023-04-06T13:31:05.714Z,14.11
2023-04-06T13:33:32.498Z,14.65
2023-04-06T13:36:00.225Z,13.70
2023-04-06T13:38:27.192Z,13.33
2023-04-06T13:40:54.197Z,12.94
2023-04-06T13:43:21.743Z,12.53
2023-04-06T13:45:53.758Z,12.86
2023-04-06T13:48:20.818Z,12.83
2023-04-06T13:50:47.833Z,12.50
2023-04-06T13:53:15.778Z,12.49
2023-04-06T13:55:42.939Z,12.16
2023-04-06T13:58:09.979Z,12.33
2023-04-06T14:00:37.112Z,12.29
2023-04-06T14:03:04.235Z,12.12
2023-04-06T14:05:34.523Z,12.13
2023-04-06T14:08:01.495Z,11.83
2023-04-06T14:10:29.192Z,11.36
2023-04-06T14:12:57.112Z,11.31
2023-04-06T14:15:26.868Z,11.25
2023-04-06T14:17:53.815Z,11.12
2023-04-06T14:20:20.728Z,10.84
2023-04-06T14:22:47.924Z,10.87
2023-04-06T14:25:14.961Z,10.71
2023-04-06T14:27:41.979Z,10.77
2023-04-06T14:30:10.095Z,10.57
2023-04-06T14:32:37.835Z,10.37
2023-04-06T14:35:08.354Z,10.59
2023-04-06T14:37:35.491Z,10.56
2023-04-06T14:40:06.042Z,10.34
2023-04-06T14:42:33.000Z,10.50
2023-04-06T14:44:59.793Z,10.55
2023-04-06T14:47:26.799Z,10.63
2023-04-06T14:49:54.623Z,10.74
2023-04-06T14:52:21.593Z,10.51
2023-04-06T14:54:48.448Z,10.82
2023-04-06T14:57:15.246Z,10.72
2023-04-06T14:59:42.048Z,10.65
2023-04-06T15:02:09.269Z,10.92
2023-04-06T15:04:38.382Z,10.59
2023-04-06T15:07:05.674Z,10.60
2023-04-06T15:09:32.901Z,10.70
2023-04-06T15:11:59.803Z,10.50
2023-04-06T15:14:27.314Z,10.43
2023-04-06T15:16:54.272Z,10.46
2023-04-06T15:19:21.250Z,10.85
2023-04-06T15:21:48.023Z,11.28
2023-04-06T15:24:15.060Z,11.32
2023-04-06T15:26:41.923Z,12.38
2023-04-06T15:29:08.900Z,12.45
2023-04-06T15:34:23.119Z,13.36
2023-04-06T15:36:49.985Z,13.03
2023-04-06T15:39:16.877Z,12.59
2023-04-06T15:41:43.776Z,13.21
2023-04-06T15:44:10.881Z,14.21
2023-04-06T15:46:38.007Z,13.67
2023-04-06T15:49:04.781Z,13.03
2023-04-06T15:51:32.003Z,12.44
2023-04-06T15:53:58.970Z,14.08
2023-04-06T15:56:25.939Z,13.95
2023-04-06T15:58:53.131Z,14.30
2023-04-06T16:01:20.096Z,14.03
2023-04-06T16:03:47.200Z,13.43
2023-04-06T16:06:14.121Z,13.58
2023-04-06T16:08:41.611Z,13.23
2023-04-06T16:11:09.349Z,13.20
2023-04-06T16:13:36.803Z,13.54
2023-04-06T16:16:04.878Z,13.98
2023-04-06T16:18:34.171Z,13.82
2023-04-06T16:21:02.668Z,12.95
2023-04-06T16:23:29.603Z,13.34
2023-04-06T16:25:58.015Z,13.74
2023-04-06T16:28:25.800Z,12.77
2023-04-06T16:30:53.082Z,12.14
2023-04-06T16:33:20.047Z,12.13
2023-04-06T16:35:48.038Z,11.72
2023-04-06T16:38:15.607Z,11.05
2023-04-06T16:40:42.601Z,10.53
2023-04-06T16:43:10.244Z,10.64
2023-04-06T16:45:38.832Z,10.76
2023-04-06T16:48:06.320Z,10.72
2023-04-06T16:50:33.903Z,10.45
2023-04-06T16:53:00.872Z,10.23
2023-04-06T16:55:27.641Z,10.20
2023-04-06T16:57:56.435Z,9.93
2023-04-06T17:00:23.840Z,9.92
2023-04-06T17:02:50.768Z,10.29
2023-04-06T17:05:22.021Z,9.83
2023-04-06T17:07:48.933Z,9.75
2023-04-06T17:10:16.984Z,9.43
2023-04-06T17:12:47.164Z,9.10
2023-04-06T17:15:14.630Z,8.81
2023-04-06T17:17:41.445Z,8.57
2023-04-06T17:20:09.420Z,8.30
2023-04-06T17:22:36.244Z,8.11
2023-04-06T17:25:05.555Z,8.10
2023-04-06T17:27:32.486Z,7.92
2023-04-06T17:30:00.366Z,7.73
2023-04-06T17:32:28.203Z,7.57
2023-04-06T17:34:55.056Z,7.47
2023-04-06T17:37:22.307Z,7.22
2023-04-06T17:39:49.113Z,7.08
2023-04-06T17:42:16.563Z,6.89
2023-04-06T17:44:43.290Z,6.74
2023-04-06T17:47:10.527Z,6.57
2023-04-06T17:49:37.311Z,6.44
2023-04-06T17:52:04.038Z,6.38
2023-04-06T17:54:30.915Z,6.23
2023-04-06T17:56:57.686Z,6.13
2023-04-06T17:59:24.494Z,5.96
2023-04-06T18:01:51.332Z,5.91
2023-04-06T18:04:18.178Z,5.67
2023-04-06T18:06:45.027Z,5.61
2023-04-06T18:09:11.952Z,5.54
2023-04-06T18:11:38.760Z,5.40
2023-04-06T18:14:09.426Z,5.34
2023-04-06T18:16:36.222Z,5.27
2023-04-06T18:19:04.744Z,5.15
2023-04-06T18:21:32.568Z,5.20
2023-04-06T18:24:02.997Z,5.09
2023-04-06T18:26:31.888Z,4.96
2023-04-06T18:28:58.700Z,4.83
2023-04-06T18:31:25.667Z,4.74
2023-04-06T18:33:53.828Z,4.62
2023-04-06T18:36:21.661Z,4.50
2023-04-06T18:38:49.469Z,4.43
2023-04-06T18:41:18.153Z,4.34
2023-04-06T18:43:45.035Z,4.26
2023-04-06T18:46:15.134Z,4.18
2023-04-06T18:48:42.852Z,4.08
2023-04-06T18:51:09.810Z,3.97
2023-04-06T18:53:38.554Z,3.86
2023-04-06T18:56:18.715Z,3.84
2023-04-06T18:58:48.513Z,3.74
2023-04-06T19:01:21.810Z,3.69
2023-04-06T19:03:48.710Z,3.61
2023-04-06T19:06:15.666Z,3.57
2023-04-06T19:08:42.400Z,3.53
2023-04-06T19:11:09.303Z,3.45
2023-04-06T19:13:38.208Z,3.45
2023-04-06T19:16:13.800Z,3.31
2023-04-06T19:18:43.965Z,3.23
2023-04-06T19:21:18.502Z,3.26
2023-04-06T19:23:46.932Z,3.16
2023-04-06T19:26:15.040Z,3.14
2023-04-06T19:28:42.353Z,3.10
2023-04-06T19:31:10.712Z,3.06
2023-04-06T19:33:39.480Z,3.02
2023-04-06T19:36:07.533Z,2.91
2023-04-06T19:38:34.453Z,2.93
2023-04-06T19:41:02.094Z,2.91
2023-04-06T19:43:28.810Z,2.94
2023-04-06T19:45:55.766Z,2.84
2023-04-06T19:48:22.597Z,2.80
2023-04-06T19:50:53.094Z,2.73
2023-04-06T19:53:19.898Z,2.67
2023-04-06T19:55:46.877Z,2.63
2023-04-06T19:58:14.460Z,2.53
2023-04-06T20:00:41.288Z,2.49
2023-04-06T20:03:08.339Z,2.49
2023-04-06T20:05:35.446Z,2.45
2023-04-06T20:08:02.190Z,2.39
2023-04-06T20:10:28.975Z,2.36
2023-04-06T20:12:55.958Z,2.29
2023-04-06T20:15:23.525Z,2.23
2023-04-06T20:17:50.353Z,2.22
2023-04-06T20:20:17.144Z,2.13
2023-04-06T20:22:44.057Z,2.09
2023-04-06T20:25:11.572Z,2.06
2023-04-06T20:27:38.328Z,2.02
2023-04-06T20:30:05.963Z,1.93
2023-04-06T20:32:33.950Z,1.87
2023-04-06T20:35:00.816Z,1.82
2023-04-06T20:37:27.637Z,1.78
2023-04-06T20:39:56.115Z,1.70
2023-04-06T20:42:24.118Z,1.68
2023-04-06T20:44:51.202Z,1.63
2023-04-06T20:47:18.122Z,1.57
2023-04-06T20:49:45.093Z,1.59
2023-04-06T20:52:11.980Z,1.49
2023-04-06T20:54:38.810Z,1.49
2023-04-06T20:57:05.581Z,1.44
2023-04-06T20:59:32.375Z,1.41
2023-04-06T21:01:59.423Z,1.37
2023-04-06T21:04:26.557Z,1.32
2023-04-06T21:06:53.452Z,1.28
2023-04-06T21:09:20.461Z,1.21
2023-04-06T21:11:47.248Z,1.16
2023-04-06T21:14:15.303Z,1.15
2023-04-06T21:16:42.194Z,1.08
2023-04-06T21:19:09.198Z,1.00
2023-04-06T21:21:36.071Z,0.96
2023-04-06T21:24:02.894Z,0.98
2023-04-06T21:26:30.064Z,0.93
2023-04-06T21:28:56.792Z,0.93
2023-04-06T21:31:23.580Z,0.87
2023-04-06T21:33:50.578Z,0.77
2023-04-06T21:36:17.448Z,0.84
2023-04-06T21:38:44.182Z,0.80
2023-04-06T21:41:11.132Z,0.77
2023-04-06T21:43:37.911Z,0.74
2023-04-06T21:46:05.098Z,0.70
2023-04-06T21:48:32.233Z,0.73
2023-04-06T21:50:59.129Z,0.69
2023-04-06T21:53:25.835Z,0.63
2023-04-06T21:55:52.718Z,0.64
2023-04-06T21:58:19.472Z,0.59
2023-04-06T22:00:46.642Z,0.53
2023-04-06T22:03:13.941Z,0.45
2023-04-06T22:05:41.039Z,0.50
2023-04-06T22:08:09.554Z,0.49
2023-04-06T22:10:40.253Z,0.48
2023-04-06T22:13:07.032Z,0.41
2023-04-06T22:15:34.383Z,0.37
2023-04-06T22:18:01.348Z,0.31
2023-04-06T22:20:28.269Z,0.25
2023-04-06T22:22:55.471Z,0.27
2023-04-06T22:25:22.604Z,0.19
2023-04-06T22:27:49.523Z,0.22
2023-04-06T22:30:16.468Z,0.17
2023-04-06T22:32:45.474Z,0.18
2023-04-06T22:35:12.291Z,0.17
2023-04-06T22:37:42.772Z,0.18
2023-04-06T22:40:11.743Z,0.17
2023-04-06T22:42:38.577Z,0.15
2023-04-06T22:45:06.107Z,0.13
2023-04-06T22:47:33.761Z,0.08
2023-04-06T22:50:00.772Z,0.10
2023-04-06T22:52:27.625Z,0.07
2023-04-06T22:54:54.444Z,0.00
2023-04-06T22:57:22.732Z,0.04
2023-04-06T22:59:49.684Z,-0.02
2023-04-06T23:02:16.911Z,-0.03
2023-04-06T23:04:46.216Z,-0.05
2023-04-06T23:07:15.484Z,-0.05
2023-04-06T23:09:44.406Z,-0.15
2023-04-06T23:12:12.011Z,-0.16
2023-04-06T23:14:38.890Z,-0.12
2023-04-06T23:17:05.788Z,-0.12
2023-04-06T23:19:32.774Z,-0.19
2023-04-06T23:22:00.962Z,-0.13
2023-04-06T23:24:28.016Z,-0.16
2023-04-06T23:26:54.786Z,-0.21
2023-04-06T23:29:21.545Z,-0.24
2023-04-06T23:31:48.324Z,-0.22
2023-04-06T23:34:15.105Z,-0.21
2023-04-06T23:36:42.172Z,-0.30
2023-04-06T23:39:09.018Z,-0.24
2023-04-06T23:41:35.869Z,-0.25
2023-04-06T23:44:02.730Z,-0.32
2023-04-06T23:46:29.596Z,-0.37
2023-04-06T23:48:56.359Z,-0.44
2023-04-06T23:51:23.062Z,-0.52
2023-04-06T23:53:49.831Z,-0.52
2023-04-06T23:56:16.569Z,-0.55
2023-04-06T23:58:43.320Z,-0.56
